sensor_id;sensor_type;location;lat;lon;timestamp;pressure;altitude;pressure_sealevel;temperature;humidity
11605;BME280;5858;43.076;25.626;2023-03-04T00:01:36;99316.75;;;6.28;100.00
11605;BME280;5858;43.076;25.626;2023-03-04T00:04:06;99297.47;;;6.09;100.00
11605;BME280;5858;43.076;25.626;2023-03-04T00:06:33;99375.13;;;6.64;100.00
11605;BME280;5858;43.076;25.626;2023-03-04T00:09:00;99295.16;;;5.88;100.00
11605;BME280;5858;43.076;25.626;2023-03-04T00:11:29;99339.59;;;6.21;100.00
11605;BME280;5858;43.076;25.626;2023-03-04T00:13:56;99367.53;;;6.51;100.00
11605;BME280;5858;43.076;25.626;2023-03-04T00:16:26;99363.94;;;6.60;100.00
11605;BME280;5858;43.076;25.626;2023-03-04T00:18:53;99258.75;;;5.80;100.00
11605;BME280;5858;43.076;25.626;2023-03-04T00:21:28;99414.47;;;6.86;100.00
11605;BME280;5858;43.076;25.626;2023-03-04T00:24:05;99371.50;;;6.47;100.00
11605;BME280;5858;43.076;25.626;2023-03-04T00:26:33;99224.75;;;5.66;100.00
11605;BME280;5858;43.076;25.626;2023-03-04T00:29:00;99340.22;;;6.41;100.00
11605;BME280;5858;43.076;25.626;2023-03-04T00:31:29;99356.53;;;6.46;100.00
11605;BME280;5858;43.076;25.626;2023-03-04T00:33:57;99390.81;;;6.75;100.00
11605;BME280;5858;43.076;25.626;2023-03-04T00:36:24;99295.13;;;6.06;100.00
11605;BME280;5858;43.076;25.626;2023-03-04T00:38:51;99337.09;;;6.02;100.00
11605;BME280;5858;43.076;25.626;2023-03-04T00:41:18;99343.25;;;6.03;100.00
11605;BME280;5858;43.076;25.626;2023-03-04T00:43:45;99397.22;;;6.21;100.00
11605;BME280;5858;43.076;25.626;2023-03-04T00:46:13;99331.34;;;5.89;100.00
11605;BME280;5858;43.076;25.626;2023-03-04T00:48:42;99395.63;;;6.28;100.00
11605;BME280;5858;43.076;25.626;2023-03-04T00:51:09;99300.69;;;5.77;100.00
11605;BME280;5858;43.076;25.626;2023-03-04T00:53:39;99362.38;;;6.06;100.00
11605;BME280;5858;43.076;25.626;2023-03-04T00:56:06;99391.22;;;6.19;100.00
11605;BME280;5858;43.076;25.626;2023-03-04T00:58:34;99380.75;;;6.17;100.00
11605;BME280;5858;43.076;25.626;2023-03-04T01:01:01;99369.44;;;5.97;100.00
11605;BME280;5858;43.076;25.626;2023-03-04T01:03:28;99316.31;;;5.62;100.00
11605;BME280;5858;43.076;25.626;2023-03-04T01:06:00;99200.00;;;5.04;100.00
11605;BME280;5858;43.076;25.626;2023-03-04T01:08:27;99393.03;;;6.18;100.00
11605;BME280;5858;43.076;25.626;2023-03-04T01:10:55;99345.38;;;5.99;100.00
11605;BME280;5858;43.076;25.626;2023-03-04T01:13:22;99346.00;;;5.93;100.00
11605;BME280;5858;43.076;25.626;2023-03-04T01:15:49;99393.25;;;6.25;100.00
11605;BME280;5858;43.076;25.626;2023-03-04T01:18:16;99277.41;;;5.35;100.00
11605;BME280;5858;43.076;25.626;2023-03-04T01:20:43;99372.56;;;5.93;100.00
11605;BME280;5858;43.076;25.626;2023-03-04T01:23:11;99398.88;;;6.22;100.00
11605;BME280;5858;43.076;25.626;2023-03-04T01:25:39;99410.19;;;6.24;100.00
11605;BME280;5858;43.076;25.626;2023-03-04T01:28:06;99354.81;;;5.93;100.00
11605;BME280;5858;43.076;25.626;2023-03-04T01:30:33;99270.66;;;5.41;100.00
11605;BME280;5858;43.076;25.626;2023-03-04T01:33:00;99370.34;;;6.06;100.00
11605;BME280;5858;43.076;25.626;2023-03-04T01:35:27;99347.81;;;5.92;100.00
11605;BME280;5858;43.076;25.626;2023-03-04T01:37:54;99351.00;;;5.96;100.00
11605;BME280;5858;43.076;25.626;2023-03-04T01:40:23;99340.44;;;5.86;100.00
11605;BME280;5858;43.076;25.626;2023-03-04T01:42:50;99381.50;;;6.27;100.00
11605;BME280;5858;43.076;25.626;2023-03-04T01:45:18;99387.50;;;6.29;100.00
11605;BME280;5858;43.076;25.626;2023-03-04T01:47:48;99304.56;;;5.64;100.00
11605;BME280;5858;43.076;25.626;2023-03-04T01:50:19;99243.09;;;5.33;100.00
11605;BME280;5858;43.076;25.626;2023-03-04T01:52:47;99393.84;;;6.37;100.00
11605;BME280;5858;43.076;25.626;2023-03-04T01:55:18;99362.69;;;6.21;100.00
11605;BME280;5858;43.076;25.626;2023-03-04T01:57:47;99318.66;;;6.00;100.00
11605;BME280;5858;43.076;25.626;2023-03-04T02:00:24;99385.88;;;6.37;100.00
11605;BME280;5858;43.076;25.626;2023-03-04T02:02:54;99407.13;;;6.37;100.00
11605;BME280;5858;43.076;25.626;2023-03-04T02:05:23;99262.09;;;5.64;100.00
11605;BME280;5858;43.076;25.626;2023-03-04T02:07:51;99351.59;;;6.08;100.00
11605;BME280;5858;43.076;25.626;2023-03-04T02:10:19;99390.34;;;6.36;100.00
11605;BME280;5858;43.076;25.626;2023-03-04T02:12:48;99255.72;;;5.57;100.00
11605;BME280;5858;43.076;25.626;2023-03-04T02:15:15;99290.97;;;5.67;100.00
11605;BME280;5858;43.076;25.626;2023-03-04T02:17:43;99370.25;;;6.34;100.00
11605;BME280;5858;43.076;25.626;2023-03-04T02:20:17;99384.53;;;6.32;100.00
11605;BME280;5858;43.076;25.626;2023-03-04T02:22:53;99294.72;;;5.75;100.00
11605;BME280;5858;43.076;25.626;2023-03-04T02:25:26;99194.59;;;5.23;100.00
11605;BME280;5858;43.076;25.626;2023-03-04T02:27:56;99367.00;;;6.22;100.00
11605;BME280;5858;43.076;25.626;2023-03-04T02:30:24;99368.00;;;6.21;100.00
11605;BME280;5858;43.076;25.626;2023-03-04T02:32:51;99328.47;;;6.00;100.00
11605;BME280;5858;43.076;25.626;2023-03-04T02:35:19;99379.56;;;6.38;100.00
11605;BME280;5858;43.076;25.626;2023-03-04T02:37:46;99353.56;;;6.06;100.00
11605;BME280;5858;43.076;25.626;2023-03-04T02:40:20;99280.50;;;5.66;100.00
11605;BME280;5858;43.076;25.626;2023-03-04T02:42:49;99351.69;;;6.16;100.00
11605;BME280;5858;43.076;25.626;2023-03-04T02:45:45;99379.19;;;6.32;100.00
11605;BME280;5858;43.076;25.626;2023-03-04T02:48:17;99379.81;;;6.26;100.00
11605;BME280;5858;43.076;25.626;2023-03-04T02:50:47;99342.72;;;6.17;100.00
11605;BME280;5858;43.076;25.626;2023-03-04T02:53:15;99352.88;;;6.04;100.00
11605;BME280;5858;43.076;25.626;2023-03-04T02:55:42;99330.56;;;6.14;100.00
11605;BME280;5858;43.076;25.626;2023-03-04T02:58:10;99337.94;;;6.20;100.00
11605;BME280;5858;43.076;25.626;2023-03-04T03:00:37;99237.16;;;5.57;100.00
11605;BME280;5858;43.076;25.626;2023-03-04T03:03:05;99204.81;;;5.36;100.00
11605;BME280;5858;43.076;25.626;2023-03-04T03:05:33;99395.00;;;6.34;100.00
11605;BME280;5858;43.076;25.626;2023-03-04T03:08:00;99222.16;;;5.30;100.00
11605;BME280;5858;43.076;25.626;2023-03-04T03:10:27;99352.56;;;6.24;100.00
11605;BME280;5858;43.076;25.626;2023-03-04T03:12:55;99306.16;;;5.93;100.00
11605;BME280;5858;43.076;25.626;2023-03-04T03:15:22;99251.94;;;5.60;100.00
11605;BME280;5858;43.076;25.626;2023-03-04T03:17:50;99377.59;;;6.40;100.00
11605;BME280;5858;43.076;25.626;2023-03-04T03:20:18;99371.75;;;6.36;100.00
11605;BME280;5858;43.076;25.626;2023-03-04T03:22:48;99384.72;;;6.39;100.00
11605;BME280;5858;43.076;25.626;2023-03-04T03:25:15;99264.66;;;5.56;100.00
11605;BME280;5858;43.076;25.626;2023-03-04T03:27:43;99357.00;;;6.16;100.00
11605;BME280;5858;43.076;25.626;2023-03-04T03:30:14;99289.19;;;5.68;100.00
11605;BME280;5858;43.076;25.626;2023-03-04T03:32:42;99289.47;;;5.83;100.00
11605;BME280;5858;43.076;25.626;2023-03-04T03:35:09;99297.53;;;5.73;100.00
11605;BME280;5858;43.076;25.626;2023-03-04T03:37:38;99301.75;;;6.02;100.00
11605;BME280;5858;43.076;25.626;2023-03-04T03:40:06;99278.78;;;5.75;100.00
11605;BME280;5858;43.076;25.626;2023-03-04T03:42:34;99364.78;;;6.35;100.00
11605;BME280;5858;43.076;25.626;2023-03-04T03:45:01;99328.38;;;6.10;100.00
11605;BME280;5858;43.076;25.626;2023-03-04T03:47:28;99200.09;;;5.30;100.00
11605;BME280;5858;43.076;25.626;2023-03-04T03:49:59;99376.44;;;6.42;100.00
11605;BME280;5858;43.076;25.626;2023-03-04T03:52:26;99385.56;;;6.40;100.00
11605;BME280;5858;43.076;25.626;2023-03-04T03:54:54;99378.28;;;6.42;100.00
11605;BME280;5858;43.076;25.626;2023-03-04T03:57:22;99287.13;;;5.80;100.00
11605;BME280;5858;43.076;25.626;2023-03-04T03:59:50;99396.94;;;6.50;100.00
11605;BME280;5858;43.076;25.626;2023-03-04T04:02:17;99287.50;;;5.85;100.00
11605;BME280;5858;43.076;25.626;2023-03-04T04:04:44;99312.63;;;5.90;100.00
11605;BME280;5858;43.076;25.626;2023-03-04T04:07:12;99366.06;;;6.31;100.00
11605;BME280;5858;43.076;25.626;2023-03-04T04:09:39;99378.69;;;6.55;100.00
11605;BME280;5858;43.076;25.626;2023-03-04T04:12:12;99401.94;;;6.53;100.00
11605;BME280;5858;43.076;25.626;2023-03-04T04:14:39;99376.19;;;6.53;100.00
11605;BME280;5858;43.076;25.626;2023-03-04T04:17:09;99384.84;;;6.55;100.00
11605;BME280;5858;43.076;25.626;2023-03-04T04:19:36;99273.22;;;5.86;100.00
11605;BME280;5858;43.076;25.626;2023-03-04T04:22:05;99366.50;;;6.44;100.00
11605;BME280;5858;43.076;25.626;2023-03-04T04:24:33;99274.22;;;5.85;100.00
11605;BME280;5858;43.076;25.626;2023-03-04T04:27:00;99225.84;;;5.55;100.00
11605;BME280;5858;43.076;25.626;2023-03-04T04:29:30;99363.66;;;6.20;100.00
11605;BME280;5858;43.076;25.626;2023-03-04T04:31:58;99389.38;;;6.37;100.00
11605;BME280;5858;43.076;25.626;2023-03-04T04:34:25;99383.28;;;6.45;100.00
11605;BME280;5858;43.076;25.626;2023-03-04T04:36:55;99322.31;;;6.17;100.00
11605;BME280;5858;43.076;25.626;2023-03-04T04:39:22;99228.41;;;5.65;100.00
11605;BME280;5858;43.076;25.626;2023-03-04T04:41:49;99388.44;;;6.46;100.00
11605;BME280;5858;43.076;25.626;2023-03-04T04:44:22;99361.66;;;6.40;100.00
11605;BME280;5858;43.076;25.626;2023-03-04T04:46:51;99351.06;;;6.22;100.00
11605;BME280;5858;43.076;25.626;2023-03-04T04:49:32;99168.72;;;5.07;100.00
11605;BME280;5858;43.076;25.626;2023-03-04T04:52:02;99382.22;;;6.38;100.00
11605;BME280;5858;43.076;25.626;2023-03-04T04:54:30;99267.34;;;5.74;100.00
11605;BME280;5858;43.076;25.626;2023-03-04T04:57:03;99209.88;;;5.29;100.00
11605;BME280;5858;43.076;25.626;2023-03-04T04:59:31;99325.56;;;6.11;100.00
11605;BME280;5858;43.076;25.626;2023-03-04T05:02:04;99351.22;;;6.20;100.00
11605;BME280;5858;43.076;25.626;2023-03-04T05:15:38;99317.22;;;5.88;100.00
11605;BME280;5858;43.076;25.626;2023-03-04T05:18:07;99273.84;;;5.62;100.00
11605;BME280;5858;43.076;25.626;2023-03-04T05:20:34;99392.25;;;6.44;100.00
11605;BME280;5858;43.076;25.626;2023-03-04T05:23:02;99368.69;;;6.23;100.00
11605;BME280;5858;43.076;25.626;2023-03-04T05:25:29;99245.66;;;5.43;100.00
11605;BME280;5858;43.076;25.626;2023-03-04T05:27:59;99376.34;;;6.08;100.00
11605;BME280;5858;43.076;25.626;2023-03-04T05:30:29;99411.84;;;6.43;100.00
11605;BME280;5858;43.076;25.626;2023-03-04T05:32:56;99393.78;;;6.28;100.00
11605;BME280;5858;43.076;25.626;2023-03-04T05:35:25;99275.38;;;5.47;100.00
11605;BME280;5858;43.076;25.626;2023-03-04T05:37:53;99416.75;;;6.55;100.00
11605;BME280;5858;43.076;25.626;2023-03-04T05:40:22;99271.28;;;5.70;100.00
11605;BME280;5858;43.076;25.626;2023-03-04T05:42:52;99386.13;;;6.25;100.00
11605;BME280;5858;43.076;25.626;2023-03-04T05:45:19;99360.41;;;6.08;100.00
11605;BME280;5858;43.076;25.626;2023-03-04T05:47:52;99342.72;;;5.99;100.00
11605;BME280;5858;43.076;25.626;2023-03-04T05:50:23;99413.47;;;6.61;100.00
11605;BME280;5858;43.076;25.626;2023-03-04T05:52:57;99427.66;;;6.70;100.00
11605;BME280;5858;43.076;25.626;2023-03-04T05:55:26;99354.25;;;6.25;100.00
11605;BME280;5858;43.076;25.626;2023-03-04T06:00:44;99363.84;;;6.44;100.00
11605;BME280;5858;43.076;25.626;2023-03-04T06:03:22;99419.28;;;6.83;100.00
11605;BME280;5858;43.076;25.626;2023-03-04T06:05:55;99375.72;;;6.58;100.00
11605;BME280;5858;43.076;25.626;2023-03-04T06:08:48;99442.06;;;6.85;100.00
11605;BME280;5858;43.076;25.626;2023-03-04T06:11:25;99327.63;;;6.17;100.00
11605;BME280;5858;43.076;25.626;2023-03-04T06:14:02;99405.59;;;6.78;100.00
11605;BME280;5858;43.076;25.626;2023-03-04T06:16:29;99349.13;;;6.32;100.00
11605;BME280;5858;43.076;25.626;2023-03-04T06:19:07;99312.88;;;6.23;100.00
11605;BME280;5858;43.076;25.626;2023-03-04T06:21:34;99422.59;;;6.85;100.00
11605;BME280;5858;43.076;25.626;2023-03-04T06:24:03;99440.63;;;6.99;100.00
11605;BME280;5858;43.076;25.626;2023-03-04T06:26:30;99270.75;;;6.10;100.00
11605;BME280;5858;43.076;25.626;2023-03-04T06:28:57;99336.34;;;6.61;100.00
11605;BME280;5858;43.076;25.626;2023-03-04T06:31:29;99322.97;;;6.45;100.00
11605;BME280;5858;43.076;25.626;2023-03-04T06:33:58;99313.75;;;6.31;100.00
11605;BME280;5858;43.076;25.626;2023-03-04T06:36:25;99331.84;;;6.54;100.00
11605;BME280;5858;43.076;25.626;2023-03-04T06:38:53;99316.91;;;6.61;100.00
11605;BME280;5858;43.076;25.626;2023-03-04T06:41:33;99307.59;;;6.57;100.00
11605;BME280;5858;43.076;25.626;2023-03-04T06:44:04;99387.88;;;7.20;100.00
11605;BME280;5858;43.076;25.626;2023-03-04T06:46:39;99381.88;;;7.18;100.00
11605;BME280;5858;43.076;25.626;2023-03-04T06:49:06;99357.94;;;7.18;100.00
11605;BME280;5858;43.076;25.626;2023-03-04T06:54:38;99337.75;;;7.08;100.00
11605;BME280;5858;43.076;25.626;2023-03-04T07:00:32;99351.94;;;7.16;100.00
11605;BME280;5858;43.076;25.626;2023-03-04T07:03:03;99425.34;;;7.77;100.00
11605;BME280;5858;43.076;25.626;2023-03-04T07:05:31;99258.84;;;6.74;100.00
11605;BME280;5858;43.076;25.626;2023-03-04T07:07:59;99424.84;;;7.74;100.00
11605;BME280;5858;43.076;25.626;2023-03-04T07:10:26;99402.03;;;7.63;100.00
11605;BME280;5858;43.076;25.626;2023-03-04T07:12:54;99425.19;;;7.87;100.00
11605;BME280;5858;43.076;25.626;2023-03-04T07:15:26;99376.91;;;7.74;100.00
11605;BME280;5858;43.076;25.626;2023-03-04T07:18:03;99272.13;;;7.24;100.00
11605;BME280;5858;43.076;25.626;2023-03-04T07:20:34;99377.94;;;7.97;100.00
11605;BME280;5858;43.076;25.626;2023-03-04T07:23:02;99313.97;;;7.73;100.00
11605;BME280;5858;43.076;25.626;2023-03-04T07:25:29;99369.78;;;8.23;100.00
11605;BME280;5858;43.076;25.626;2023-03-04T07:27:57;99325.81;;;7.95;100.00
11605;BME280;5858;43.076;25.626;2023-03-04T07:30:24;99253.06;;;7.70;100.00
11605;BME280;5858;43.076;25.626;2023-03-04T07:32:52;99409.94;;;8.78;100.00
11605;BME280;5858;43.076;25.626;2023-03-04T07:35:22;99269.69;;;7.88;99.79
11605;BME280;5858;43.076;25.626;2023-03-04T07:37:49;99415.28;;;8.78;100.00
11605;BME280;5858;43.076;25.626;2023-03-04T07:40:17;99345.63;;;8.49;100.00
11605;BME280;5858;43.076;25.626;2023-03-04T07:42:48;99397.03;;;8.98;100.00
11605;BME280;5858;43.076;25.626;2023-03-04T07:45:16;99361.53;;;8.98;100.00
11605;BME280;5858;43.076;25.626;2023-03-04T07:47:43;99254.47;;;8.45;99.43
11605;BME280;5858;43.076;25.626;2023-03-04T07:50:11;99405.59;;;9.41;98.93
11605;BME280;5858;43.076;25.626;2023-03-04T07:52:42;99341.78;;;9.15;97.70
11605;BME280;5858;43.076;25.626;2023-03-04T07:55:11;99421.94;;;9.77;95.53
11605;BME280;5858;43.076;25.626;2023-03-04T07:57:45;99327.91;;;9.20;94.70
11605;BME280;5858;43.076;25.626;2023-03-04T08:00:15;99414.81;;;9.69;95.77
11605;BME280;5858;43.076;25.626;2023-03-04T08:02:42;99432.88;;;9.90;96.15
11605;BME280;5858;43.076;25.626;2023-03-04T08:05:12;99301.53;;;9.25;95.85
11605;BME280;5858;43.076;25.626;2023-03-04T08:07:43;99331.28;;;9.44;94.45
11605;BME280;5858;43.076;25.626;2023-03-04T08:10:16;99399.00;;;9.60;94.99
11605;BME280;5858;43.076;25.626;2023-03-04T08:12:46;99433.63;;;9.76;95.57
11605;BME280;5858;43.076;25.626;2023-03-04T08:15:13;99364.94;;;9.62;95.31
11605;BME280;5858;43.076;25.626;2023-03-04T08:17:41;99442.97;;;10.11;93.28
11605;BME280;5858;43.076;25.626;2023-03-04T08:20:10;99362.81;;;9.80;92.83
11605;BME280;5858;43.076;25.626;2023-03-04T08:22:38;99346.94;;;9.78;91.29
11605;BME280;5858;43.076;25.626;2023-03-04T08:25:08;99267.88;;;9.46;92.14
11605;BME280;5858;43.076;25.626;2023-03-04T08:27:35;99369.84;;;10.27;91.89
11605;BME280;5858;43.076;25.626;2023-03-04T08:30:03;99299.56;;;9.95;90.19
11605;BME280;5858;43.076;25.626;2023-03-04T08:32:30;99344.47;;;10.23;87.86
11605;BME280;5858;43.076;25.626;2023-03-04T08:34:57;99394.88;;;10.86;86.50
11605;BME280;5858;43.076;25.626;2023-03-04T08:37:27;99385.81;;;10.72;87.97
11605;BME280;5858;43.076;25.626;2023-03-04T08:39:59;99302.81;;;10.28;88.17
11605;BME280;5858;43.076;25.626;2023-03-04T08:42:35;99396.09;;;11.13;88.50
11605;BME280;5858;43.076;25.626;2023-03-04T08:45:02;99405.16;;;11.42;88.30
11605;BME280;5858;43.076;25.626;2023-03-04T08:47:30;99362.78;;;11.16;83.42
11605;BME280;5858;43.076;25.626;2023-03-04T08:49:57;99358.91;;;11.03;80.90
11605;BME280;5858;43.076;25.626;2023-03-04T08:52:24;99341.25;;;11.09;79.26
11605;BME280;5858;43.076;25.626;2023-03-04T08:54:53;99226.44;;;10.26;80.38
11605;BME280;5858;43.076;25.626;2023-03-04T08:57:24;99384.66;;;11.19;80.08
11605;BME280;5858;43.076;25.626;2023-03-04T08:59:55;99216.16;;;10.00;82.37
11605;BME280;5858;43.076;25.626;2023-03-04T09:02:22;99368.28;;;10.85;84.06
11605;BME280;5858;43.076;25.626;2023-03-04T09:04:51;99347.81;;;10.77;83.36
11605;BME280;5858;43.076;25.626;2023-03-04T09:07:18;99351.44;;;10.99;82.94
11605;BME280;5858;43.076;25.626;2023-03-04T09:09:45;99345.88;;;11.00;83.75
11605;BME280;5858;43.076;25.626;2023-03-04T09:12:12;99359.34;;;11.22;84.81
11605;BME280;5858;43.076;25.626;2023-03-04T09:14:39;99291.31;;;10.87;82.70
11605;BME280;5858;43.076;25.626;2023-03-04T09:17:08;99226.28;;;10.42;83.59
11605;BME280;5858;43.076;25.626;2023-03-04T09:19:36;99315.34;;;10.95;80.29
11605;BME280;5858;43.076;25.626;2023-03-04T09:22:03;99338.78;;;11.08;80.49
11605;BME280;5858;43.076;25.626;2023-03-04T09:24:30;99331.28;;;11.18;80.38
11605;BME280;5858;43.076;25.626;2023-03-04T09:27:00;99366.84;;;11.62;79.94
11605;BME280;5858;43.076;25.626;2023-03-04T09:29:27;99318.97;;;11.23;79.68
11605;BME280;5858;43.076;25.626;2023-03-04T09:31:55;99292.41;;;11.07;79.47
11605;BME280;5858;43.076;25.626;2023-03-04T09:34:24;99340.41;;;11.38;79.67
11605;BME280;5858;43.076;25.626;2023-03-04T09:36:51;99340.03;;;11.41;80.17
11605;BME280;5858;43.076;25.626;2023-03-04T09:39:18;99362.09;;;11.94;80.61
11605;BME280;5858;43.076;25.626;2023-03-04T09:41:48;99360.69;;;11.98;78.76
11605;BME280;5858;43.076;25.626;2023-03-04T09:44:23;99363.03;;;11.86;77.81
11605;BME280;5858;43.076;25.626;2023-03-04T09:46:52;99330.69;;;11.73;78.07
11605;BME280;5858;43.076;25.626;2023-03-04T09:49:24;99228.22;;;11.14;78.31
11605;BME280;5858;43.076;25.626;2023-03-04T09:51:59;99341.78;;;11.85;77.87
11605;BME280;5858;43.076;25.626;2023-03-04T09:54:59;99248.44;;;11.52;78.65
11605;BME280;5858;43.076;25.626;2023-03-04T09:57:39;99322.75;;;12.01;78.19
11605;BME280;5858;43.076;25.626;2023-03-04T10:00:13;99298.50;;;11.88;77.07
11605;BME280;5858;43.076;25.626;2023-03-04T10:03:03;99310.78;;;11.82;76.91
11605;BME280;5858;43.076;25.626;2023-03-04T10:05:35;99289.25;;;11.90;76.30
11605;BME280;5858;43.076;25.626;2023-03-04T10:08:20;99248.94;;;11.41;77.11
11605;BME280;5858;43.076;25.626;2023-03-04T10:10:50;99333.94;;;12.05;77.39
11605;BME280;5858;43.076;25.626;2023-03-04T10:13:26;99324.63;;;12.28;78.33
11605;BME280;5858;43.076;25.626;2023-03-04T10:15:58;99286.00;;;12.23;77.63
11605;BME280;5858;43.076;25.626;2023-03-04T10:18:32;99314.47;;;12.45;75.98
11605;BME280;5858;43.076;25.626;2023-03-04T10:21:07;99309.56;;;12.55;75.77
11605;BME280;5858;43.076;25.626;2023-03-04T10:23:38;99189.25;;;11.75;76.74
11605;BME280;5858;43.076;25.626;2023-03-04T10:26:12;99311.72;;;12.39;74.12
11605;BME280;5858;43.076;25.626;2023-03-04T10:28:40;99299.97;;;12.40;73.92
11605;BME280;5858;43.076;25.626;2023-03-04T10:31:11;99316.72;;;12.42;74.70
11605;BME280;5858;43.076;25.626;2023-03-04T10:33:41;99196.22;;;11.91;74.84
11605;BME280;5858;43.076;25.626;2023-03-04T10:39:06;99179.44;;;11.61;74.40
11605;BME280;5858;43.076;25.626;2023-03-04T10:41:34;99222.56;;;11.66;75.05
11605;BME280;5858;43.076;25.626;2023-03-04T10:44:14;99124.88;;;10.98;76.19
11605;BME280;5858;43.076;25.626;2023-03-04T10:46:44;99175.22;;;11.73;75.93
11605;BME280;5858;43.076;25.626;2023-03-04T10:49:24;99209.16;;;12.09;73.84
11605;BME280;5858;43.076;25.626;2023-03-04T10:51:59;99231.63;;;12.36;73.25
11605;BME280;5858;43.076;25.626;2023-03-04T10:54:29;99157.75;;;12.05;73.31
11605;BME280;5858;43.076;25.626;2023-03-04T10:57:02;99178.56;;;12.31;74.92
11605;BME280;5858;43.076;25.626;2023-03-04T10:59:54;99172.16;;;12.32;74.13
11605;BME280;5858;43.076;25.626;2023-03-04T11:02:48;99216.59;;;12.82;70.72
11605;BME280;5858;43.076;25.626;2023-03-04T11:05:53;99093.00;;;12.08;71.44
11605;BME280;5858;43.076;25.626;2023-03-04T11:19:10;99144.13;;;12.96;71.73
11605;BME280;5858;43.076;25.626;2023-03-04T11:21:47;99104.88;;;12.88;70.50
11605;BME280;5858;43.076;25.626;2023-03-04T11:25:17;99041.78;;;12.44;69.65
11605;BME280;5858;43.076;25.626;2023-03-04T11:28:35;99081.31;;;12.83;69.33
11605;BME280;5858;43.076;25.626;2023-03-04T11:31:16;99155.28;;;12.92;69.39
11605;BME280;5858;43.076;25.626;2023-03-04T11:33:52;99101.88;;;12.56;71.97
11605;BME280;5858;43.076;25.626;2023-03-04T11:36:30;99144.34;;;12.40;74.05
11605;BME280;5858;43.076;25.626;2023-03-04T11:39:01;99129.44;;;12.31;74.72
11605;BME280;5858;43.076;25.626;2023-03-04T11:41:31;99167.03;;;12.37;74.47
11605;BME280;5858;43.076;25.626;2023-03-04T11:44:01;99147.63;;;12.01;76.25
11605;BME280;5858;43.076;25.626;2023-03-04T11:46:49;99167.88;;;12.38;76.77
11605;BME280;5858;43.076;25.626;2023-03-04T11:49:50;99161.53;;;12.17;76.55
11605;BME280;5858;43.076;25.626;2023-03-04T11:52:28;99138.78;;;12.07;76.02
11605;BME280;5858;43.076;25.626;2023-03-04T11:55:11;99051.13;;;11.45;76.79
11605;BME280;5858;43.076;25.626;2023-03-04T11:58:03;99103.88;;;11.72;77.36
11605;BME280;5858;43.076;25.626;2023-03-04T12:00:37;99129.44;;;11.96;76.95
11605;BME280;5858;43.076;25.626;2023-03-04T12:03:20;99029.34;;;11.54;76.62
11605;BME280;5858;43.076;25.626;2023-03-04T12:06:00;99073.78;;;12.05;74.71
11605;BME280;5858;43.076;25.626;2023-03-04T12:08:49;99139.72;;;12.27;74.86
11605;BME280;5858;43.076;25.626;2023-03-04T12:11:26;99145.00;;;12.48;74.96
11605;BME280;5858;43.076;25.626;2023-03-04T12:14:15;99140.44;;;12.42;74.46
11605;BME280;5858;43.076;25.626;2023-03-04T12:17:21;99146.63;;;12.43;75.77
11605;BME280;5858;43.076;25.626;2023-03-04T12:20:13;99044.50;;;11.75;75.62
11605;BME280;5858;43.076;25.626;2023-03-04T12:22:44;99077.16;;;12.20;75.88
11605;BME280;5858;43.076;25.626;2023-03-04T12:25:34;98989.34;;;11.53;75.95
11605;BME280;5858;43.076;25.626;2023-03-04T12:31:33;99088.28;;;12.17;76.45
11605;BME280;5858;43.076;25.626;2023-03-04T12:34:29;99023.31;;;11.80;76.24
11605;BME280;5858;43.076;25.626;2023-03-04T12:37:13;99027.56;;;11.68;76.02
11605;BME280;5858;43.076;25.626;2023-03-04T12:39:50;99156.13;;;12.45;75.38
11605;BME280;5858;43.076;25.626;2023-03-04T12:42:42;99117.34;;;12.48;75.60
11605;BME280;5858;43.076;25.626;2023-03-04T12:45:20;99112.22;;;12.66;75.91
11605;BME280;5858;43.076;25.626;2023-03-04T12:48:03;98953.38;;;11.75;75.40
11605;BME280;5858;43.076;25.626;2023-03-04T12:50:38;99106.91;;;12.79;74.50
11605;BME280;5858;43.076;25.626;2023-03-04T12:53:21;99034.53;;;12.38;74.49
11605;BME280;5858;43.076;25.626;2023-03-04T12:55:54;99114.19;;;13.05;74.74
11605;BME280;5858;43.076;25.626;2023-03-04T12:58:26;99104.31;;;13.19;73.66
11605;BME280;5858;43.076;25.626;2023-03-04T13:01:03;99082.56;;;12.87;73.10
11605;BME280;5858;43.076;25.626;2023-03-04T13:03:46;99001.75;;;12.69;72.76
11605;BME280;5858;43.076;25.626;2023-03-04T13:06:32;99008.56;;;12.58;72.46
11605;BME280;5858;43.076;25.626;2023-03-04T13:09:08;99102.63;;;13.11;72.60
11605;BME280;5858;43.076;25.626;2023-03-04T13:11:53;99113.38;;;13.05;73.09
11605;BME280;5858;43.076;25.626;2023-03-04T13:14:40;99086.38;;;13.33;73.32
11605;BME280;5858;43.076;25.626;2023-03-04T13:17:41;98995.19;;;12.91;72.28
11605;BME280;5858;43.076;25.626;2023-03-04T13:20:22;99031.13;;;12.90;71.71
11605;BME280;5858;43.076;25.626;2023-03-04T13:22:52;99028.03;;;13.13;70.98
11605;BME280;5858;43.076;25.626;2023-03-04T13:25:41;98960.28;;;12.78;71.23
11605;BME280;5858;43.076;25.626;2023-03-04T13:28:15;98917.94;;;12.87;70.49
11605;BME280;5858;43.076;25.626;2023-03-04T13:31:23;98935.06;;;12.92;70.64
11605;BME280;5858;43.076;25.626;2023-03-04T13:34:09;99036.91;;;13.60;70.84
11605;BME280;5858;43.076;25.626;2023-03-04T13:36:55;99057.59;;;13.79;70.26
11605;BME280;5858;43.076;25.626;2023-03-04T13:39:34;99025.75;;;13.76;69.38
11605;BME280;5858;43.076;25.626;2023-03-04T13:42:03;99042.44;;;13.92;68.91
11605;BME280;5858;43.076;25.626;2023-03-04T13:44:34;99039.59;;;13.73;69.28
11605;BME280;5858;43.076;25.626;2023-03-04T13:47:15;98974.50;;;13.12;69.87
11605;BME280;5858;43.076;25.626;2023-03-04T13:49:48;99020.00;;;13.40;70.17
11605;BME280;5858;43.076;25.626;2023-03-04T13:52:37;99034.44;;;13.59;70.21
11605;BME280;5858;43.076;25.626;2023-03-04T13:55:41;99029.72;;;13.41;70.71
11605;BME280;5858;43.076;25.626;2023-03-04T13:58:17;99032.19;;;13.42;71.64
11605;BME280;5858;43.076;25.626;2023-03-04T14:00:51;99030.53;;;13.48;70.32
11605;BME280;5858;43.076;25.626;2023-03-04T14:03:26;99020.19;;;13.45;70.55
11605;BME280;5858;43.076;25.626;2023-03-04T14:06:11;98972.84;;;13.11;72.14